Terminal Aerodrome Forecast
Issued by NWS Wichita, KS

Home | Current Version | Previous Version | Text Only | Print | Product List | Glossary Off
Versions: 1 2 3 4 5 6 7 8 9 10 11 12 13 14 15 16 17 18 19 20 21 22 23 24 25 26 27 28 29

000
FTUS43 KICT 230731 AAA
TAFICT
TAF AMD
KICT 230731Z 2308/2406 15008KT 2SM -DZ BR OVC004
      TEMPO 2308/2312 4SM -DZ BR OVC006
     FM231700 15014KT 5SM -SHRA VCTS SCT006 OVC010CB
     FM240300 13011KT 4SM BR BKN008=

USA.gov is the U.S. government's official web portal to all federal, state and local government web resources and services.